Detall de PIREP

Printer-friendly versionPDF version

[2011/01/29 21:41:00]
Flight IATA:CT3420
Pilot Number:042
Company ICAO:CAT
Aircraft Type:B744/E
PAX:300
Departing Airport: LEBL
Destination Airport: VHHH
Alternate Airport:ZGGG
Online: VATSIM
Route:VERSO UL16 MHN UM603 EKI UW702 INB UW90 SIN UW96 ODIRA G487 PR B967 MINPU R227 AKT G96 BODSI G161 MASAV G96 DIVNO G13 KZO A356 NT B142 UC G270 TIRBA B142 REVKI A460 KCA L888 PEXUN B213 WFX B330 POU R473 SIERA
Flight Level:F350
No Slew and time accel
No pause
Crash detect
Detect pilot in Cockpit between each 30 and 45 minutes
21:41 Zero fuel Weight: 466689 Lbs, Fuel Weight: 380898 Lbs
21:41 VATSIM:LEBL 292130Z VRB02KT 9999 FEW020 SCT050 08/05 Q1009 NOSIG
21:41 VATSIM:VHHH 292130Z 36010KT 9999 FEW040 09/M01 Q1027 NOSIG
21:41 VOICE CATALONIAN
21:43 Parking Brakes off
21:54 Take-off
21:54 Take off Weight: 844162 Lbs
21:54 Wind: 002 @ 002 Knots Heading: 246
21:54 POS N41 17 00 E002 04 40
21:54 Gear Up: 194 Knots
21:54 Flaps:3 at 194 Knots
21:55 Flaps:2 at 190 Knots
21:55 Flaps:1 at 224 Knots
21:57 Flaps:0 at 253 Knots
22:09 Wind:337@052 Knots Heading: 069 Ground Speed: 467 Knots Altitude 24383 ft
22:24 Wind:269@022 Knots Heading: 102 Ground Speed: 510 Knots Altitude 31866 ft
22:39 Wind:259@045 Knots Heading: 085 Ground Speed: 506 Knots Altitude 32395 ft
22:54 Wind:249@034 Knots Heading: 087 Ground Speed: 403 Knots Altitude 32555 ft
23:09 Wind:257@030 Knots Heading: 109 Ground Speed: 388 Knots Altitude 30866 ft
23:24 Wind:265@034 Knots Heading: 089 Ground Speed: 387 Knots Altitude 30419 ft
23:39 Wind:276@030 Knots Heading: 090 Ground Speed: 490 Knots Altitude 34025 ft
23:54 Wind:291@043 Knots Heading: 095 Ground Speed: 506 Knots Altitude 34133 ft
00:09 Wind:294@037 Knots Heading: 076 Ground Speed: 499 KnotsAltitude 34232 ft
00:24 Wind:298@037 Knots Heading: 083 Ground Speed: 501 Knots Altitude 34245 ft
00:39 Wind:287@034 Knots Heading: 073 Ground Speed: 498 Knots Altitude 34127 ft
00:54 Wind:260@032 Knots Heading: 076 Ground Speed: 502 Knots Altitude 34015 ft
01:09 Wind:261@022 Knots Heading: 086 Ground Speed: 492 Knots Altitude 33996 ft
01:24 Wind:247@024 Knots Heading: 067 Ground Speed: 493 Knots Altitude 34005 ft
01:39 Wind:307@057 Knots Heading: 059 Ground Speed: 495 Knots Altitude 33999 ft
01:54 Wind:314@064 Knots Heading: 079 Ground Speed: 510 Knots Altitude 34078 ft
02:09 Wind:305@053 Knots Heading: 096 Ground Speed: 517 Knots Altitude 34110 ft
02:24 Wind:318@068 Knots Heading: 082 Ground Speed: 509 Knots Altitude 34156 ft
02:39 Wind:277@065 Knots Heading: 061 Ground Speed: 525 Knots Altitude 34140 ft
02:54 Wind:272@066 Knots Heading: 064Ground Speed: 526 Knots Altitude 34094 ft
03:09 Wind:270@043 Knots Heading: 068 Ground Speed: 508 Knots Altitude 34127 ft
03:24 Wind:259@054 Knots Heading: 100 Ground Speed: 516 Knots Altitude 34091 ft
03:39 Wind:256@085 Knots Heading: 106 Ground Speed: 537 Knots Altitude 34143 ft
03:54 Wind:256@087 Knots Heading: 101 Ground Speed: 550 Knots Altitude 34225 ft
04:09 Wind:232@048 Knots Heading: 104 Ground Speed: 501 Knots Altitude 34133 ft
04:24 Wind:252@026 Knots Heading: 103 Ground Speed: 491 Knots Altitude 34166 ft
04:39 Wind:252@026 Knots Heading: 093 Ground Speed: 495 Knots Altitude 34179 ft
04:54 Wind:275@044 Knots Heading: 118 Ground Speed: 511 Knots Altitude 34173 ft
05:09 Wind:277@048 Knots Heading: 112 Ground Speed: 517 Knots Altitude 34183 ft
05:24 Wind:285@054 Knots Heading: 126 Ground Speed: 521 Knots Altitude 34229 ft
05:39 Wind:310@069 Knots Heading: 125 Ground Speed: 541 Knots Altitude 34353 ft
05:54 Wind:286@050 Knots Heading: 127 Ground Speed: 517 Knots Altitude 34320 ft
06:09 Wind:285@065 Knots Heading: 128 Ground Speed: 529 Knots Altitude 34314 ft
06:24 Wind:276@077 Knots Heading: 130 Ground Speed: 539 Knots Altitude 34304 ft
06:39 Wind:271@092 Knots Heading: 130 Ground Speed: 548 Knots Altitude 34281 ft
06:54 Wind:271@098 Knots Heading: 131 Ground Speed: 550 Knots Altitude 34261 ft
07:09 Wind:270@099 Knots Heading: 133 Ground Speed: 551 Knots Altitude 34438 ft
07:24 Wind:270@114 Knots Heading: 170 Ground Speed: 505 Knots Altitude 34429 ft
07:39 Wind:270@114 Knots Heading: 096 Ground Speed: 588 Knots Altitude 34412 ft
07:54 Wind:270@114 Knots Heading: 174 Ground Speed: 499 Knots Altitude 34416 ft
08:09 Wind:269@120 Knots Heading: 167 Ground Speed: 518 Knots Altitude 34425 ft
08:24 Wind:270@121 Knots Heading: 110 Ground Speed: 596 Knots Altitude 34422 ft
08:39 Wind:273@125 Knots Heading: 145 Ground Speed: 567 Knots Altitude 34491 ft
08:54 Wind:266@070 Knots Heading: 143 Ground Speed: 414 Knots Altitude 21236 ft
09:09 Wind:254@064 Knots Heading: 098 Ground Speed: 395 Knots Altitude 17004 ft
09:24 Wind:265@027 Knots Heading: 161 Ground Speed: 304 Knots Altitude 12975 ft
09:28 Flaps:1 at 237 Knots
09:33 Flaps:2 at 208 Knots
09:33 Flaps:3 at 206 Knots
09:36 Gear Down: 169 Knots
09:36 Flaps:4 at 169 Knots
09:36 Flaps:5 at 159 Knots
09:39 Wind:331@008 Knots Heading: 068 Ground Speed: 160 Knots Altitude 826 ft
09:39 TouchDown:Rate -340 ft/min Speed: 155 Knots
09:40 VATSIM:VHHH 300930Z 31009KT CAVOK 15/03 Q1024 NOSIG
09:40 Land
09:40 Wind:331@008 Knots
09:40 Heading: 070
09:40 Flight Duration: 11:46
09:40 Landing Weight: 544850 Lbs
09:40 POS N22 18 55 E113 54 41
09:41 Parking brakes on
09:41 Block to Block Duration: 11:58
09:41 Final Fuel: 77963 Lbls
09:41 Spent Fuel: 302934 Lbls
09:41 Flight Length: 5444 NM
09:41 TOD Land Length: 5444 NM

Exportar CSV

Powered by Drupal - Modified by Danger4k